Time;durP1;ratioP1;P1;durP2;ratioP2;P2;SDS_P1;SDS_P2;PMS_P1;PMS_P2;Temp;Humidity;BMP_temperature;BMP_pressure;BME280_temperature;BME280_humidity;BME280_pressure;Samples;Min_cycle;Max_cycle;Signal;HPM_P1;HPM_P2
2023/03/14 00:00:17;;;;;;;1.17;0.50;;;;;;;9.81;100.00;96476.53;5072770;28;20662;-76
2023/03/14 00:02:43;;;;;;;1.03;0.50;;;;;;;9.77;100.00;96478.88;5073156;28;20599;-76
2023/03/14 00:05:11;;;;;;;0.43;0.43;;;;;;;9.72;100.00;96476.19;5073229;28;20205;-76
2023/03/14 00:07:38;;;;;;;0.43;0.40;;;;;;;9.72;100.00;96462.09;5073123;28;20212;-76
2023/03/14 00:10:07;;;;;;;0.67;0.57;;;;;;;9.68;100.00;96498.19;5073064;28;20227;-76
2023/03/14 00:12:34;;;;;;;0.50;0.40;;;;;;;9.71;100.00;96477.25;5075859;28;20829;-76
2023/03/14 00:15:03;;;;;;;0.80;0.60;;;;;;;9.71;100.00;96485.22;5076943;28;20211;-76
2023/03/14 00:17:30;;;;;;;0.50;0.50;;;;;;;9.67;100.00;96478.00;5076507;28;20668;-76
2023/03/14 00:19:56;;;;;;;0.50;0.50;;;;;;;9.64;100.00;96460.72;5076613;28;20203;-76
2023/03/14 00:22:23;;;;;;;2.40;0.60;;;;;;;9.61;100.00;96452.47;5076816;28;20220;-76
2023/03/14 00:24:49;;;;;;;1.27;0.60;;;;;;;9.63;100.00;96460.97;5076787;28;20211;-76
2023/03/14 00:27:15;;;;;;;0.80;0.50;;;;;;;9.64;100.00;96439.50;5076483;28;20667;-76
2023/03/14 00:29:43;;;;;;;2.23;0.60;;;;;;;9.66;100.00;96441.91;5076649;28;20228;-76
2023/03/14 00:32:09;;;;;;;0.67;0.43;;;;;;;9.58;100.00;96445.00;5076248;28;20228;-76
2023/03/14 00:34:36;;;;;;;0.63;0.40;;;;;;;9.57;100.00;96451.38;5076597;28;20227;-76
2023/03/14 00:37:02;;;;;;;1.37;0.60;;;;;;;9.64;100.00;96459.94;5076501;28;20211;-76
2023/03/14 00:39:29;;;;;;;0.50;0.50;;;;;;;9.64;100.00;96460.72;5076526;28;20197;-76
2023/03/14 00:41:55;;;;;;;0.67;0.50;;;;;;;9.63;100.00;96463.63;5076084;28;20238;-75
2023/03/14 00:44:21;;;;;;;0.87;0.60;;;;;;;9.68;100.00;96463.69;5076502;28;20570;-75
2023/03/14 00:46:48;;;;;;;0.40;0.40;;;;;;;9.69;100.00;96465.28;5076344;28;20208;-75
2023/03/14 00:49:14;;;;;;;0.80;0.60;;;;;;;9.63;100.00;96453.00;5076188;28;20232;-75
2023/03/14 00:51:40;;;;;;;2.33;0.60;;;;;;;9.63;100.00;96447.69;5076262;28;20296;-76
2023/03/14 00:54:07;;;;;;;1.20;0.50;;;;;;;9.70;100.00;96453.63;5075907;28;20663;-76
2023/03/14 00:56:33;;;;;;;0.73;0.60;;;;;;;9.69;100.00;96462.63;5076179;28;20314;-76
2023/03/14 00:59:00;;;;;;;0.40;0.40;;;;;;;9.69;100.00;96466.06;5076181;28;20209;-76
2023/03/14 01:01:26;;;;;;;1.07;0.50;;;;;;;9.67;100.00;96465.53;5076103;28;20215;-76
2023/03/14 01:03:54;;;;;;;0.80;0.50;;;;;;;9.63;100.00;96463.63;5075741;28;20224;-76
2023/03/14 01:06:24;;;;;;;0.40;0.40;;;;;;;9.68;100.00;96471.66;5076363;28;20211;-76
2023/03/14 01:08:50;;;;;;;0.60;0.50;;;;;;;9.68;100.00;96477.75;5076004;28;20208;-76
2023/03/14 01:11:20;;;;;;;0.50;0.50;;;;;;;9.69;100.00;96481.22;5075525;28;20695;-76
2023/03/14 01:13:46;;;;;;;0.60;0.43;;;;;;;9.70;100.00;96496.88;5075846;28;20234;-76
2023/03/14 01:16:14;;;;;;;0.50;0.50;;;;;;;9.74;100.00;96497.97;5075474;28;20217;-76
2023/03/14 01:18:43;;;;;;;0.77;0.43;;;;;;;9.82;100.00;96499.38;5075958;28;20541;-76
2023/03/14 01:21:22;;;;;;;1.33;0.50;;;;;;;9.77;100.00;96480.75;5075467;28;20563;-76
2023/03/14 01:23:49;;;;;;;0.97;0.60;;;;;;;9.70;100.00;96470.34;5075853;28;20224;-76
2023/03/14 01:26:19;;;;;;;0.80;0.50;;;;;;;9.74;100.00;96465.34;5075703;28;20200;-76
2023/03/14 01:28:47;;;;;;;0.50;0.50;;;;;;;9.72;100.00;96451.50;5075637;28;20255;-76
2023/03/14 01:31:14;;;;;;;0.40;0.40;;;;;;;9.70;100.00;96435.03;5075213;28;20228;-76
2023/03/14 01:33:42;;;;;;;0.40;0.40;;;;;;;9.69;100.00;96422.84;5075173;28;20248;-76
2023/03/14 01:36:09;;;;;;;1.50;0.57;;;;;;;9.70;100.00;96432.38;5075178;28;20668;-76
2023/03/14 01:38:39;;;;;;;0.40;0.40;;;;;;;9.72;100.00;96423.13;5075400;28;20215;-76
2023/03/14 01:41:06;;;;;;;0.60;0.50;;;;;;;9.69;100.00;96414.88;5075386;28;20300;-76
2023/03/14 01:43:33;;;;;;;0.40;0.40;;;;;;;9.79;100.00;96394.53;5075296;28;20250;-75
2023/03/14 01:46:05;;;;;;;0.40;0.40;;;;;;;9.81;100.00;96389.75;5075325;28;20208;-76
2023/03/14 01:48:50;;;;;;;0.40;0.40;;;;;;;9.73;100.00;96384.13;5075233;28;20215;-76
2023/03/14 01:51:25;;;;;;;1.30;0.40;;;;;;;9.69;100.00;96377.72;5075185;28;20215;-75
2023/03/14 01:53:55;;;;;;;1.37;0.40;;;;;;;9.64;100.00;96375.03;5075101;28;20249;-76
2023/03/14 01:56:22;;;;;;;0.67;0.47;;;;;;;9.60;100.00;96387.22;5073902;28;20567;-76
2023/03/14 01:58:52;;;;;;;0.60;0.50;;;;;;;9.69;100.00;96391.00;5075046;28;20204;-75
2023/03/14 02:01:20;;;;;;;0.50;0.50;;;;;;;9.64;100.00;96385.66;5075512;28;20590;-75
2023/03/14 02:03:56;;;;;;;0.50;0.50;;;;;;;9.71;100.00;96380.91;5074555;28;20224;-76
2023/03/14 02:06:30;;;;;;;0.77;0.30;;;;;;;9.82;100.00;96387.91;5074890;28;20230;-76
2023/03/14 02:08:57;;;;;;;0.57;0.53;;;;;;;9.78;100.00;96382.28;5074527;28;20187;-75
2023/03/14 02:11:29;;;;;;;0.43;0.40;;;;;;;9.75;100.00;96371.41;5075513;28;20235;-76
2023/03/14 02:13:58;;;;;;;0.60;0.50;;;;;;;9.70;100.00;96388.09;5074675;28;20229;-75
2023/03/14 02:16:25;;;;;;;0.40;0.40;;;;;;;9.74;100.00;96381.19;5074445;28;20220;-75
2023/03/14 02:18:51;;;;;;;0.47;0.47;;;;;;;9.66;100.00;96370.25;5074636;28;20223;-76
2023/03/14 02:21:36;;;;;;;0.50;0.50;;;;;;;9.72;100.00;96372.72;5074594;28;20203;-75
2023/03/14 02:24:10;;;;;;;0.50;0.50;;;;;;;9.69;100.00;96372.44;5074606;28;20189;-75
2023/03/14 02:26:45;;;;;;;0.30;0.30;;;;;;;9.66;100.00;96362.31;5074503;28;20193;-75
2023/03/14 02:29:11;;;;;;;0.63;0.50;;;;;;;9.55;100.00;96352.69;5074460;28;20196;-76
2023/03/14 02:31:37;;;;;;;1.13;0.50;;;;;;;9.57;100.00;96345.25;5074507;28;20247;-76
2023/03/14 02:34:04;;;;;;;0.40;0.40;;;;;;;9.54;100.00;96335.16;5073953;28;20212;-76
2023/03/14 02:36:31;;;;;;;0.40;0.40;;;;;;;9.61;100.00;96333.09;5073760;28;20573;-76
2023/03/14 02:39:17;;;;;;;1.50;0.50;;;;;;;9.57;100.00;96332.00;5074215;28;20212;-76
2023/03/14 02:41:45;;;;;;;0.40;0.30;;;;;;;9.53;100.00;96338.84;5073050;28;20185;-75
2023/03/14 02:44:11;;;;;;;0.97;0.40;;;;;;;9.52;100.00;96338.06;5074198;28;20661;-76
2023/03/14 02:46:37;;;;;;;0.30;0.30;;;;;;;9.58;100.00;96333.59;5073798;28;20234;-75
2023/03/14 02:49:15;;;;;;;0.50;0.30;;;;;;;9.56;100.00;96322.44;5074122;28;20204;-75
2023/03/14 02:51:43;;;;;;;0.73;0.40;;;;;;;9.58;100.00;96322.97;5073972;28;20208;-75
2023/03/14 02:54:10;;;;;;;0.40;0.40;;;;;;;9.62;100.00;96329.38;5074015;28;20201;-76
2023/03/14 02:56:36;;;;;;;0.33;0.33;;;;;;;9.57;100.00;96313.44;5073671;28;20567;-76
2023/03/14 02:59:05;;;;;;;1.20;0.47;;;;;;;9.60;100.00;96304.97;5073848;28;20295;-76
2023/03/14 03:01:31;;;;;;;0.70;0.50;;;;;;;9.50;100.00;96303.03;5074312;28;20204;-76
2023/03/14 03:03:57;;;;;;;0.37;0.37;;;;;;;9.51;100.00;96290.59;5073795;28;20205;-76
2023/03/14 03:06:24;;;;;;;1.50;0.60;;;;;;;9.56;100.00;96290.63;5073643;28;20217;-76
2023/03/14 03:08:50;;;;;;;0.47;0.33;;;;;;;9.59;100.00;96284.81;5073461;28;20208;-75
2023/03/14 03:11:17;;;;;;;2.37;0.50;;;;;;;9.74;100.00;96293.63;5073241;28;20695;-75
2023/03/14 03:13:43;;;;;;;0.30;0.30;;;;;;;9.64;100.00;96288.28;5073521;28;20221;-75
2023/03/14 03:16:09;;;;;;;1.33;0.60;;;;;;;9.66;100.00;96278.22;5073516;28;20212;-75
2023/03/14 03:18:36;;;;;;;1.20;0.50;;;;;;;9.73;100.00;96278.00;5073686;28;20189;-76
2023/03/14 03:21:04;;;;;;;1.37;0.60;;;;;;;9.70;100.00;96267.88;5073643;28;20223;-76
2023/03/14 03:23:31;;;;;;;1.17;0.50;;;;;;;9.54;100.00;96280.25;5073208;28;20584;-76
2023/03/14 03:25:57;;;;;;;0.90;0.50;;;;;;;9.58;100.00;96270.72;5074124;28;20205;-76
2023/03/14 03:28:24;;;;;;;0.40;0.40;;;;;;;9.55;100.00;96273.09;5073518;28;20223;-76
2023/03/14 03:30:50;;;;;;;0.40;0.40;;;;;;;9.60;100.00;96278.44;5073366;28;20225;-75
2023/03/14 03:33:16;;;;;;;0.60;0.60;;;;;;;9.70;100.00;96263.41;5073226;28;20230;-76
2023/03/14 03:35:45;;;;;;;1.40;0.60;;;;;;;9.62;100.00;96263.06;5073032;28;20204;-76
2023/03/14 03:38:12;;;;;;;1.23;0.60;;;;;;;9.62;100.00;96260.41;5073495;28;20205;-76
2023/03/14 03:40:39;;;;;;;3.60;0.63;;;;;;;9.55;100.00;96257.97;5073360;28;20204;-76
2023/03/14 03:43:05;;;;;;;0.97;0.40;;;;;;;9.45;100.00;96255.25;5073236;28;20227;-76
2023/03/14 03:45:31;;;;;;;1.30;0.70;;;;;;;9.44;100.00;96251.00;5073109;28;20208;-76
2023/03/14 03:47:58;;;;;;;1.43;0.80;;;;;;;9.52;100.00;96249.72;5077223;28;20212;-76
2023/03/14 03:50:24;;;;;;;0.77;0.50;;;;;;;9.38;100.00;96249.38;5077242;28;20223;-76
2023/03/14 03:52:50;;;;;;;2.07;0.73;;;;;;;9.32;100.00;96242.44;5077335;28;20221;-76
2023/03/14 03:55:17;;;;;;;0.97;0.60;;;;;;;9.40;100.00;96251.75;5077463;28;20208;-76
2023/03/14 03:57:43;;;;;;;2.50;0.67;;;;;;;9.29;100.00;96234.19;5077329;28;20216;-76
2023/03/14 04:00:11;;;;;;;3.03;0.80;;;;;;;9.43;100.00;96241.47;5077272;28;20203;-76
2023/03/14 04:02:38;;;;;;;1.97;0.70;;;;;;;9.34;100.00;96243.00;5076782;28;20228;-76
2023/03/14 04:05:05;;;;;;;4.23;0.97;;;;;;;9.30;100.00;96238.44;5076815;28;20211;-76
2023/03/14 04:07:35;;;;;;;3.13;0.67;;;;;;;9.28;100.00;96243.22;5076870;28;20211;-76
2023/03/14 04:10:01;;;;;;;2.93;0.80;;;;;;;9.34;100.00;96243.00;5076930;28;20209;-76
2023/03/14 04:12:27;;;;;;;1.33;0.60;;;;;;;9.42;100.00;96239.84;5076866;28;20224;-76
2023/03/14 04:14:54;;;;;;;1.33;0.60;;;;;;;9.33;100.00;96227.34;5076787;28;20207;-76
2023/03/14 04:17:20;;;;;;;3.80;0.80;;;;;;;9.42;100.00;96237.19;5076456;28;20216;-76
2023/03/14 04:19:49;;;;;;;3.77;0.87;;;;;;;9.38;100.00;96237.97;5076662;28;20208;-76
2023/03/14 04:22:15;;;;;;;2.80;0.83;;;;;;;9.29;100.00;96236.84;5076892;28;20225;-76
2023/03/14 04:24:42;;;;;;;3.17;0.90;;;;;;;9.24;100.00;96234.16;5076389;28;20204;-76
2023/03/14 04:27:08;;;;;;;3.93;0.80;;;;;;;9.15;100.00;96230.38;5075869;28;20212;-76
2023/03/14 04:29:34;;;;;;;3.93;0.90;;;;;;;9.02;100.00;96231.63;5076114;28;20201;-76
2023/03/14 04:32:01;;;;;;;3.70;0.97;;;;;;;9.08;100.00;96227.13;5076003;28;20228;-76
2023/03/14 04:34:27;;;;;;;4.83;1.00;;;;;;;9.20;100.00;96231.22;5076395;28;20204;-76
2023/03/14 04:36:53;;;;;;;3.27;1.33;;;;;;;9.16;100.00;96226.69;5076244;28;20204;-76
2023/03/14 04:39:20;;;;;;;2.03;0.70;;;;;;;9.16;100.00;96229.31;5076029;28;20204;-75
2023/03/14 04:41:46;;;;;;;1.70;0.80;;;;;;;9.13;100.00;96227.19;5076053;28;20277;-76
2023/03/14 04:44:12;;;;;;;3.27;0.80;;;;;;;9.20;100.00;96227.78;5075964;28;20238;-76
2023/03/14 04:46:39;;;;;;;2.30;0.70;;;;;;;9.13;100.00;96217.38;5076033;28;20204;-76
2023/03/14 04:49:05;;;;;;;3.30;1.10;;;;;;;9.02;100.00;96220.22;5076119;28;20207;-76
2023/03/14 04:51:31;;;;;;;3.13;0.80;;;;;;;9.02;100.00;96212.25;5075890;28;20224;-76
2023/03/14 04:53:58;;;;;;;1.23;0.60;;;;;;;9.18;100.00;96208.66;5074905;28;20295;-76
2023/03/14 04:56:24;;;;;;;3.70;1.00;;;;;;;9.06;100.00;96203.53;5075663;28;20232;-76
2023/03/14 04:58:50;;;;;;;2.23;1.20;;;;;;;9.06;100.00;96208.84;5074803;28;20205;-76
2023/03/14 05:01:17;;;;;;;3.93;0.80;;;;;;;9.04;100.00;96197.69;5075531;28;20211;-76
2023/03/14 05:03:43;;;;;;;3.27;0.70;;;;;;;9.03;100.00;96190.81;5075358;28;20228;-76
2023/03/14 05:06:10;;;;;;;2.30;0.93;;;;;;;9.00;100.00;96198.47;5075654;28;20249;-76
2023/03/14 05:08:36;;;;;;;2.37;0.90;;;;;;;8.90;100.00;96201.84;5075695;28;20575;-76
2023/03/14 05:11:03;;;;;;;3.43;0.83;;;;;;;8.79;100.00;96189.53;5075483;28;20230;-76
2023/03/14 05:13:30;;;;;;;2.70;0.77;;;;;;;8.80;100.00;96191.16;5074805;28;20636;-76
2023/03/14 05:16:04;;;;;;;2.63;0.93;;;;;;;8.89;100.00;96186.19;5075058;28;20220;-76
2023/03/14 05:18:31;;;;;;;2.83;0.90;;;;;;;8.83;100.00;96187.97;5075995;28;20189;-76
2023/03/14 05:20:57;;;;;;;3.63;1.10;;;;;;;8.79;100.00;96196.69;5075028;28;20697;-76
2023/03/14 05:23:24;;;;;;;1.70;0.80;;;;;;;8.79;100.00;96186.88;5074622;28;20224;-76
2023/03/14 05:25:50;;;;;;;6.57;1.10;;;;;;;8.78;100.00;96184.50;5075034;28;20209;-76
2023/03/14 05:28:16;;;;;;;2.60;0.80;;;;;;;8.78;100.00;96185.28;5075485;28;20208;-76
2023/03/14 05:30:43;;;;;;;1.27;0.90;;;;;;;8.71;100.00;96178.63;5075265;28;20228;-76
2023/03/14 05:33:09;;;;;;;2.53;0.90;;;;;;;8.63;100.00;96176.41;5075194;28;20239;-77
2023/03/14 05:35:35;;;;;;;2.87;1.00;;;;;;;8.59;100.00;96167.38;5074769;28;20205;-76
2023/03/14 05:38:02;;;;;;;2.57;0.70;;;;;;;8.58;100.00;96156.00;5074275;28;20209;-76
2023/03/14 05:40:28;;;;;;;3.43;0.87;;;;;;;8.66;100.00;96160.03;5074232;28;20211;-76
2023/03/14 05:42:55;;;;;;;4.03;0.77;;;;;;;8.67;100.00;96158.97;5074194;28;20229;-77
2023/03/14 05:45:21;;;;;;;1.70;0.80;;;;;;;8.79;100.00;96162.25;5074379;28;20210;-77
2023/03/14 05:47:47;;;;;;;3.00;0.90;;;;;;;8.75;100.00;96169.13;5073643;28;20304;-76
2023/03/14 05:50:14;;;;;;;3.07;1.00;;;;;;;8.64;100.00;96168.22;5074109;28;20216;-77
2023/03/14 05:52:40;;;;;;;2.50;0.80;;;;;;;8.55;100.00;96159.16;5074535;28;20228;-77
2023/03/14 05:55:07;;;;;;;2.00;0.90;;;;;;;8.60;100.00;96161.84;5075076;28;20208;-77
2023/03/14 05:57:33;;;;;;;3.20;0.93;;;;;;;8.61;100.00;96162.66;5074089;28;20209;-76
2023/03/14 05:59:59;;;;;;;4.53;0.93;;;;;;;8.68;100.00;96163.22;5073759;28;20672;-76
2023/03/14 06:02:26;;;;;;;3.50;0.87;;;;;;;8.66;100.00;96170.63;5073664;28;20301;-76
2023/03/14 06:04:53;;;;;;;4.37;1.13;;;;;;;8.71;100.00;96165.38;5073436;28;20212;-77
2023/03/14 06:07:19;;;;;;;2.70;0.93;;;;;;;8.76;100.00;96160.91;5073068;28;20732;-76
2023/03/14 06:09:46;;;;;;;3.23;1.10;;;;;;;8.86;100.00;96163.66;5073024;28;20209;-76
2023/03/14 06:12:12;;;;;;;1.10;0.80;;;;;;;8.79;100.00;96168.34;5073567;28;20237;-76
2023/03/14 06:14:39;;;;;;;3.80;0.97;;;;;;;8.70;100.00;96172.53;5073082;28;20299;-77
2023/03/14 06:17:05;;;;;;;2.70;0.93;;;;;;;8.78;100.00;96174.69;5072659;28;20216;-76
2023/03/14 06:19:31;;;;;;;1.97;0.93;;;;;;;8.83;100.00;96166.78;5072724;28;20685;-77
2023/03/14 06:21:58;;;;;;;2.67;1.20;;;;;;;8.81;100.00;96168.91;5073091;28;20707;-77
2023/03/14 06:24:24;;;;;;;3.30;0.80;;;;;;;8.84;100.00;96172.91;5072874;28;20212;-77
2023/03/14 06:26:50;;;;;;;2.43;0.93;;;;;;;8.81;100.00;96170.75;5072643;28;20542;-77
2023/03/14 06:29:17;;;;;;;1.43;0.80;;;;;;;8.92;100.00;96167.13;5072607;28;20283;-76
2023/03/14 06:31:43;;;;;;;3.40;1.00;;;;;;;8.86;100.00;96166.28;5072973;28;20705;-76
2023/03/14 06:34:09;;;;;;;2.33;0.97;;;;;;;8.78;100.00;96166.75;5073016;28;20201;-77
2023/03/14 06:36:36;;;;;;;3.87;1.00;;;;;;;8.83;100.00;96166.78;5072503;28;20218;-76
2023/03/14 06:39:02;;;;;;;3.87;0.90;;;;;;;8.85;100.00;96158.59;5072863;28;20201;-76
2023/03/14 06:41:29;;;;;;;2.03;0.90;;;;;;;8.83;100.00;96158.06;5073279;28;20197;-77
2023/03/14 06:43:55;;;;;;;1.97;0.73;;;;;;;8.86;100.00;96149.59;5072416;28;20229;-77
2023/03/14 06:46:21;;;;;;;2.50;0.80;;;;;;;8.91;100.00;96137.19;5072773;28;20209;-77
2023/03/14 06:48:48;;;;;;;2.60;0.90;;;;;;;8.87;100.00;96146.69;5072820;28;20208;-76
2023/03/14 06:51:14;;;;;;;5.10;1.13;;;;;;;8.81;100.00;96152.19;5073096;28;20315;-76
2023/03/14 06:53:41;;;;;;;2.40;0.90;;;;;;;8.94;100.00;96143.81;5072059;28;20668;-77
2023/03/14 06:56:08;;;;;;;2.40;0.70;;;;;;;9.09;100.00;96151.91;5072799;28;20218;-77
2023/03/14 06:58:34;;;;;;;2.30;0.90;;;;;;;9.34;100.00;96152.84;5072881;28;20203;-76
2023/03/14 07:01:01;;;;;;;1.67;0.70;;;;;;;9.64;100.00;96157.50;5073011;28;20200;-76
2023/03/14 07:03:27;;;;;;;1.03;0.70;;;;;;;9.74;100.00;96154.88;5072244;28;20239;-76
2023/03/14 07:05:54;;;;;;;2.67;0.63;;;;;;;9.82;100.00;96157.03;5072276;28;20204;-76
2023/03/14 07:08:20;;;;;;;1.90;0.70;;;;;;;9.87;100.00;96154.41;5072632;28;20562;-76
2023/03/14 07:10:47;;;;;;;2.37;0.70;;;;;;;9.79;100.00;96155.72;5073068;28;20211;-76
2023/03/14 07:13:13;;;;;;;1.73;0.60;;;;;;;9.94;100.00;96160.25;5073132;28;20231;-76
2023/03/14 07:15:40;;;;;;;2.40;0.87;;;;;;;9.95;100.00;96164.50;5072240;28;20205;-76
2023/03/14 07:18:06;;;;;;;2.70;0.73;;;;;;;10.02;100.00;96176.50;5071859;28;20290;-76
2023/03/14 07:20:32;;;;;;;1.37;0.40;;;;;;;10.18;100.00;96170.19;5071984;28;20215;-76
2023/03/14 07:23:00;;;;;;;0.83;0.50;;;;;;;10.31;100.00;96174.19;5072553;28;20221;-76
2023/03/14 07:25:27;;;;;;;1.60;0.80;;;;;;;10.46;100.00;96171.59;5072500;28;20274;-76
2023/03/14 07:27:53;;;;;;;1.23;0.50;;;;;;;10.58;100.00;96170.28;5072298;28;20227;-76
2023/03/14 07:30:19;;;;;;;1.43;0.60;;;;;;;10.76;97.91;96180.38;5072548;28;20219;-73
2023/03/14 07:32:46;;;;;;;3.20;0.60;;;;;;;10.78;97.17;96172.16;5072090;28;20232;-73
2023/03/14 07:35:12;;;;;;;3.43;0.70;;;;;;;10.89;98.17;96173.72;5072518;28;20231;-73
2023/03/14 07:37:39;;;;;;;1.50;0.50;;;;;;;10.88;95.31;96175.63;5071739;28;20212;-73
2023/03/14 07:40:06;;;;;;;1.30;0.60;;;;;;;10.97;92.20;96181.19;5072100;28;20205;-72
2023/03/14 07:42:33;;;;;;;2.30;0.57;;;;;;;10.97;94.13;96173.22;5072004;28;20707;-72
2023/03/14 07:44:59;;;;;;;1.00;0.50;;;;;;;11.10;96.48;96185.97;5072093;28;20215;-72
2023/03/14 07:47:25;;;;;;;1.50;0.60;;;;;;;11.23;95.42;96181.97;5071995;28;20211;-73
2023/03/14 07:49:52;;;;;;;1.83;0.60;;;;;;;11.27;93.05;96178.50;5072877;28;20208;-73
2023/03/14 07:52:18;;;;;;;3.80;0.60;;;;;;;11.36;91.52;96176.91;5072299;28;20232;-73
2023/03/14 07:54:44;;;;;;;1.83;0.60;;;;;;;11.32;92.25;96180.34;5072100;28;20555;-72
2023/03/14 07:57:11;;;;;;;1.37;0.60;;;;;;;11.28;94.80;96174.78;5072124;28;20622;-72
2023/03/14 07:59:37;;;;;;;1.40;0.50;;;;;;;11.37;90.35;96173.16;5071596;28;20215;-72
2023/03/14 08:02:05;;;;;;;2.80;0.63;;;;;;;11.36;91.18;96174.25;5071654;28;20223;-73
2023/03/14 08:04:31;;;;;;;2.97;0.60;;;;;;;11.52;91.22;96169.69;5072656;28;20216;-73
2023/03/14 08:06:58;;;;;;;1.67;0.50;;;;;;;11.57;90.30;96170.44;5072874;28;20208;-72
2023/03/14 08:09:24;;;;;;;1.07;0.60;;;;;;;11.57;91.14;96175.00;5072498;28;20211;-72
2023/03/14 08:11:50;;;;;;;0.43;0.30;;;;;;;11.65;88.18;96166.47;5071783;28;20227;-72
2023/03/14 08:14:17;;;;;;;1.30;0.50;;;;;;;11.72;88.31;96165.13;5071587;28;20209;-72
2023/03/14 08:16:43;;;;;;;2.10;0.53;;;;;;;11.71;86.99;96176.81;5071989;28;20668;-72
2023/03/14 08:19:10;;;;;;;0.83;0.33;;;;;;;11.77;87.01;96162.44;5071346;28;20216;-71
2023/03/14 08:21:36;;;;;;;1.37;0.60;;;;;;;11.79;87.67;96168.28;5072089;28;20202;-71
2023/03/14 08:24:02;;;;;;;1.07;0.50;;;;;;;12.01;85.84;96158.09;5071888;28;20202;-72
2023/03/14 08:26:29;;;;;;;1.80;0.60;;;;;;;12.20;85.38;96163.59;5071608;28;20218;-71
2023/03/14 08:28:55;;;;;;;1.70;0.53;;;;;;;12.28;82.20;96155.81;5071663;28;20220;-71
2023/03/14 08:31:21;;;;;;;1.20;0.40;;;;;;;12.43;82.13;96154.94;5071819;28;20221;-72
2023/03/14 08:33:48;;;;;;;0.30;0.30;;;;;;;12.48;79.39;96146.91;5075546;28;20700;-72
2023/03/14 08:36:14;;;;;;;0.50;0.50;;;;;;;12.49;81.93;96148.50;5075819;28;20642;-72
2023/03/14 08:38:42;;;;;;;0.77;0.40;;;;;;;12.52;80.06;96154.06;5075456;28;20213;-71
2023/03/14 08:41:09;;;;;;;1.13;0.40;;;;;;;12.31;78.66;96141.16;5075204;28;20682;-72
2023/03/14 08:43:36;;;;;;;0.40;0.40;;;;;;;12.29;78.58;96153.97;5075389;28;20787;-72
2023/03/14 08:46:03;;;;;;;1.07;0.60;;;;;;;12.30;80.87;96160.88;5075305;28;20213;-72
2023/03/14 08:48:30;;;;;;;1.27;0.40;;;;;;;12.23;77.51;96171.81;5076005;28;20233;-72
2023/03/14 08:50:57;;;;;;;0.60;0.47;;;;;;;12.26;81.37;96159.81;5075090;28;20217;-71
2023/03/14 08:53:24;;;;;;;0.87;0.40;;;;;;;12.44;76.63;96159.19;5074957;28;20236;-71
2023/03/14 08:55:54;;;;;;;1.20;0.63;;;;;;;12.69;79.26;96173.13;5075476;28;20219;-71
2023/03/14 08:58:22;;;;;;;1.37;0.43;;;;;;;12.65;78.03;96181.94;5075228;28;20598;-72
2023/03/14 09:00:49;;;;;;;0.50;0.50;;;;;;;12.60;75.77;96174.81;5075379;28;20207;-72
2023/03/14 09:03:15;;;;;;;0.50;0.40;;;;;;;12.66;75.45;96189.69;5075510;28;20224;-72
2023/03/14 09:05:41;;;;;;;1.47;0.70;;;;;;;12.67;76.52;96193.97;5074562;28;20258;-72
2023/03/14 09:08:08;;;;;;;0.50;0.50;;;;;;;12.84;76.29;96178.34;5075783;28;20309;-72
2023/03/14 09:10:34;;;;;;;1.50;0.47;;;;;;;12.97;77.58;96195.66;5076259;28;20223;-72
2023/03/14 09:13:00;;;;;;;1.50;0.40;;;;;;;12.72;76.83;96201.94;5074980;28;20232;-72
2023/03/14 09:15:27;;;;;;;0.57;0.50;;;;;;;12.80;76.69;96208.53;5075081;28;20207;-71
2023/03/14 09:17:53;;;;;;;1.57;0.57;;;;;;;12.62;76.45;96212.63;5075118;28;20230;-71
2023/03/14 09:20:19;;;;;;;1.33;0.53;;;;;;;12.53;78.39;96224.16;5074846;28;20679;-72
2023/03/14 09:22:46;;;;;;;1.83;0.40;;;;;;;12.66;80.07;96232.34;5075118;28;20245;-72
2023/03/14 09:25:12;;;;;;;2.00;0.40;;;;;;;12.47;79.93;96230.56;5075150;28;20282;-72
2023/03/14 09:27:39;;;;;;;1.07;0.40;;;;;;;12.49;81.05;96228.44;5075009;28;20216;-71
2023/03/14 09:30:06;;;;;;;1.67;0.50;;;;;;;12.51;80.40;96232.44;5075432;28;20214;-71
2023/03/14 09:32:32;;;;;;;0.77;0.50;;;;;;;12.59;80.74;96234.53;5074944;28;20266;-71
2023/03/14 09:34:59;;;;;;;0.97;0.40;;;;;;;12.76;80.49;96226.97;5074849;28;20207;-72
2023/03/14 09:37:25;;;;;;;1.33;0.57;;;;;;;12.67;81.62;96236.63;5075051;28;20208;-71
2023/03/14 09:39:51;;;;;;;1.20;0.50;;;;;;;12.72;80.94;96247.25;5074739;28;20210;-71
2023/03/14 09:42:22;;;;;;;1.23;0.30;;;;;;;12.57;80.21;96247.31;5074526;28;20234;-71
2023/03/14 09:45:14;;;;;;;2.03;0.43;;;;;;;12.57;81.99;96241.19;5074201;28;20197;-71
2023/03/14 09:47:41;;;;;;;1.13;0.50;;;;;;;12.73;85.75;96240.03;5074608;28;20192;-71
2023/03/14 09:50:15;;;;;;;0.83;0.40;;;;;;;12.78;80.61;96245.31;5074432;28;20226;-71
2023/03/14 09:53:03;;;;;;;0.73;0.47;;;;;;;12.44;79.94;96247.91;5074166;28;20713;-71
2023/03/14 09:55:29;;;;;;;0.43;0.37;;;;;;;12.64;81.12;96258.47;5073911;28;20235;-72
2023/03/14 09:58:01;;;;;;;0.60;0.30;;;;;;;12.76;80.77;96258.16;5074477;28;20204;-71
2023/03/14 10:00:31;;;;;;;0.60;0.37;;;;;;;12.85;80.45;96249.28;5074123;28;20195;-72
2023/03/14 10:03:08;;;;;;;1.07;0.37;;;;;;;12.60;80.34;96252.09;5074254;28;20228;-72
2023/03/14 10:05:34;;;;;;;0.40;0.40;;;;;;;12.65;79.51;96254.75;5074554;28;20202;-71
2023/03/14 10:08:00;;;;;;;2.27;0.50;;;;;;;12.61;80.25;96243.03;5074051;28;20208;-71
2023/03/14 10:10:28;;;;;;;0.63;0.40;;;;;;;12.63;80.00;96235.56;5073695;28;20216;-72
2023/03/14 10:13:18;;;;;;;0.33;0.30;;;;;;;12.67;79.47;96241.13;5073575;28;20699;-71
2023/03/14 10:16:02;;;;;;;0.60;0.40;;;;;;;12.79;78.91;96231.72;5073675;28;20227;-72
2023/03/14 10:18:31;;;;;;;2.80;0.40;;;;;;;12.89;79.53;96230.88;5073579;28;20188;-72
2023/03/14 10:21:06;;;;;;;0.30;0.30;;;;;;;12.95;76.39;96217.22;5074094;28;20201;-72
2023/03/14 10:23:34;;;;;;;0.87;0.40;;;;;;;13.00;75.22;96214.56;5073497;28;20220;-72
2023/03/14 10:26:13;;;;;;;0.30;0.30;;;;;;;13.01;75.82;96213.47;5073550;28;20222;-71
2023/03/14 10:28:52;;;;;;;2.53;0.50;;;;;;;13.40;74.25;96211.56;5073452;28;20196;-70
2023/03/14 10:31:19;;;;;;;0.40;0.40;;;;;;;13.51;74.19;96204.22;5074319;28;20261;-71
2023/03/14 10:34:00;;;;;;;0.23;0.23;;;;;;;13.25;73.46;96219.66;5073956;28;20277;-71
2023/03/14 10:36:34;;;;;;;0.30;0.30;;;;;;;13.04;74.86;96215.59;5073388;28;20193;-72
2023/03/14 10:39:24;;;;;;;1.57;0.40;;;;;;;12.97;75.10;96208.97;5073060;28;20670;-72
2023/03/14 10:41:55;;;;;;;0.40;0.40;;;;;;;12.79;75.44;96214.94;5073049;28;20193;-71
2023/03/14 10:44:26;;;;;;;0.67;0.30;;;;;;;12.79;76.56;96223.72;5073078;28;20193;-71
2023/03/14 10:47:04;;;;;;;0.73;0.40;;;;;;;13.06;73.53;96210.75;5073184;28;20254;-71
2023/03/14 10:49:36;;;;;;;1.03;0.30;;;;;;;13.07;74.03;96214.25;5073327;28;20192;-71
2023/03/14 10:52:32;;;;;;;0.43;0.30;;;;;;;12.88;74.43;96232.72;5073410;28;20232;-71
2023/03/14 10:55:02;;;;;;;0.20;0.20;;;;;;;12.83;73.87;96232.75;5064208;28;20207;-71
2023/03/14 10:57:29;;;;;;;0.30;0.30;;;;;;;12.78;75.10;96230.13;5072087;28;20229;-72
2023/03/14 10:59:57;;;;;;;0.30;0.30;;;;;;;12.64;75.50;96233.69;5072939;28;20211;-73
2023/03/14 11:02:35;;;;;;;0.37;0.37;;;;;;;12.62;76.20;96244.63;5072293;28;20227;-72
2023/03/14 11:05:31;;;;;;;0.77;0.43;;;;;;;12.58;76.43;96237.47;5073105;28;20215;-72
2023/03/14 11:08:32;;;;;;;0.60;0.40;;;;;;;12.42;78.70;96242.06;5073022;28;20193;-72
2023/03/14 11:11:15;;;;;;;0.37;0.37;;;;;;;12.52;79.12;96252.66;5072811;28;20197;-73
2023/03/14 11:13:52;;;;;;;1.07;0.47;;;;;;;12.60;79.16;96262.75;5072877;28;20275;-73
2023/03/14 11:16:39;;;;;;;0.40;0.30;;;;;;;12.57;80.10;96252.63;5072684;28;20254;-73
2023/03/14 11:19:40;;;;;;;0.57;0.30;;;;;;;12.41;81.53;96264.47;5072634;28;20205;-73
2023/03/14 11:22:24;;;;;;;0.40;0.30;;;;;;;12.15;87.66;96276.28;5072599;28;20329;-72
2023/03/14 11:25:04;;;;;;;0.30;0.30;;;;;;;11.80;94.88;96264.94;5072208;28;20223;-73
2023/03/14 11:27:45;;;;;;;0.50;0.50;;;;;;;11.39;100.00;96266.78;5072225;28;20196;-76
2023/03/14 11:30:51;;;;;;;1.03;0.60;;;;;;;10.99;100.00;96269.44;5072182;28;20305;-73
2023/03/14 11:33:27;;;;;;;0.60;0.40;;;;;;;11.04;100.00;96267.59;5072777;28;20227;-75
2023/03/14 11:36:10;;;;;;;0.40;0.40;;;;;;;10.90;100.00;96277.16;5072355;28;20209;-75
2023/03/14 11:38:46;;;;;;;1.43;0.87;;;;;;;10.81;100.00;96275.25;5072301;28;20189;-77
2023/03/14 11:41:26;;;;;;;0.70;0.50;;;;;;;10.91;100.00;96270.75;5072116;28;20204;-77